createdAt,value
2022-10-08T00:01:30.559Z,24.02
2022-10-08T00:03:59.088Z,26.67
2022-10-08T00:06:30.422Z,24.48
2022-10-08T00:09:05.340Z,25.83
2022-10-08T00:11:37.234Z,26.75
2022-10-08T00:14:06.475Z,29.95
2022-10-08T00:16:37.324Z,25.77
2022-10-08T00:19:08.610Z,26.63
2022-10-08T00:21:38.274Z,28.17
2022-10-08T00:24:08.840Z,25.33
2022-10-08T00:26:42.547Z,31.83
2022-10-08T00:29:14.773Z,24.33
2022-10-08T00:31:45.783Z,24.42
2022-10-08T00:34:17.156Z,22.75
2022-10-08T00:36:45.476Z,25.73
2022-10-08T00:39:19.580Z,24.80
2022-10-08T00:41:52.843Z,27.58
2022-10-08T00:44:55.939Z,26.17
2022-10-08T00:47:26.385Z,28.63
2022-10-08T00:49:58.223Z,23.05
2022-10-08T00:52:29.709Z,26.98
2022-10-08T00:54:58.404Z,24.80
2022-10-08T00:57:27.789Z,28.70
2022-10-08T00:59:56.633Z,25.17
2022-10-08T01:02:25.256Z,23.65
2022-10-08T01:04:53.716Z,28.15
2022-10-08T01:07:27.460Z,25.90
2022-10-08T01:10:26.366Z,29.65
2022-10-08T01:13:32.548Z,27.75
2022-10-08T01:16:08.928Z,24.58
2022-10-08T01:19:03.143Z,29.08
2022-10-08T01:21:47.589Z,25.90
2022-10-08T01:24:54.108Z,27.42
2022-10-08T01:27:28.790Z,26.42
2022-10-08T01:29:57.392Z,29.08
2022-10-08T01:32:31.943Z,28.92
2022-10-08T01:35:03.313Z,26.55
2022-10-08T01:37:36.979Z,23.35
2022-10-08T01:40:09.617Z,25.95
2022-10-08T01:42:40.141Z,25.30
2022-10-08T01:45:12.681Z,27.38
2022-10-08T01:47:41.589Z,26.83
2022-10-08T01:50:17.010Z,25.92
2022-10-08T01:52:49.704Z,25.02
2022-10-08T01:55:26.978Z,29.08
2022-10-08T01:57:58.427Z,24.58
2022-10-08T02:00:26.933Z,25.17
2022-10-08T02:02:56.233Z,22.88
2022-10-08T02:05:25.176Z,31.70
2022-10-08T02:07:54.779Z,25.90
2022-10-08T02:10:24.534Z,23.92
2022-10-08T02:12:53.070Z,22.23
2022-10-08T02:15:29.404Z,23.45
2022-10-08T02:17:59.982Z,23.92
2022-10-08T02:20:38.548Z,27.15
2022-10-08T02:23:10.894Z,24.27
2022-10-08T02:25:45.871Z,21.85
2022-10-08T02:28:31.178Z,21.95
2022-10-08T02:31:18.263Z,26.13
2022-10-08T02:34:01.807Z,22.23
2022-10-08T02:39:04.370Z,21.88
2022-10-08T02:41:39.114Z,24.07
2022-10-08T02:44:09.785Z,21.10
2022-10-08T02:46:41.101Z,19.83
2022-10-08T02:49:23.298Z,27.23
2022-10-08T02:51:52.281Z,24.95
2022-10-08T02:54:22.071Z,20.92
2022-10-08T02:57:14.022Z,21.92
2022-10-08T02:59:43.689Z,22.92
2022-10-08T03:02:20.237Z,22.63
2022-10-08T03:04:53.894Z,24.50
2022-10-08T03:07:23.395Z,22.20
2022-10-08T03:09:52.896Z,22.23
2022-10-08T03:12:21.038Z,25.95
2022-10-08T03:14:50.368Z,20.92
2022-10-08T03:17:26.691Z,22.17
2022-10-08T03:19:55.241Z,25.42
2022-10-08T03:22:24.946Z,32.75
2022-10-08T03:24:56.600Z,25.45
2022-10-08T03:27:26.514Z,24.38
2022-10-08T03:29:57.506Z,25.17
2022-10-08T03:32:26.459Z,25.13
2022-10-08T03:34:54.766Z,24.23
2022-10-08T03:37:23.775Z,26.33
2022-10-08T03:39:52.093Z,26.98
2022-10-08T03:42:20.543Z,26.52
2022-10-08T03:44:48.218Z,29.25
2022-10-08T03:47:16.407Z,30.88
2022-10-08T03:49:44.340Z,35.80
2022-10-08T03:52:12.627Z,26.67
2022-10-08T03:54:40.310Z,30.42
2022-10-08T03:57:08.890Z,32.42
2022-10-08T03:59:37.087Z,32.38
2022-10-08T04:02:05.043Z,33.10
2022-10-08T04:04:33.260Z,36.47
2022-10-08T04:07:01.109Z,27.70
2022-10-08T04:09:28.977Z,27.00
2022-10-08T04:11:57.517Z,31.35
2022-10-08T04:14:25.359Z,26.77
2022-10-08T04:16:55.729Z,28.38
2022-10-08T04:19:24.218Z,34.17
2022-10-08T04:21:52.079Z,32.15
2022-10-08T04:24:20.539Z,29.58
2022-10-08T04:26:48.735Z,33.47
2022-10-08T04:29:16.789Z,29.90
2022-10-08T04:31:44.427Z,29.27
2022-10-08T04:34:27.085Z,25.60
2022-10-08T04:36:56.682Z,31.35
2022-10-08T04:39:24.585Z,33.40
2022-10-08T04:41:52.969Z,30.65
2022-10-08T04:44:20.950Z,37.67
2022-10-08T04:46:49.036Z,41.28
2022-10-08T04:49:16.821Z,37.55
2022-10-08T04:51:45.294Z,34.85
2022-10-08T04:54:13.088Z,34.00
2022-10-08T04:56:40.896Z,30.13
2022-10-08T04:59:09.361Z,43.45
2022-10-08T05:01:37.595Z,47.17
2022-10-08T05:04:05.469Z,43.88
2022-10-08T05:06:34.549Z,33.00
2022-10-08T05:09:04.408Z,37.35
2022-10-08T05:11:33.398Z,40.38
2022-10-08T05:14:02.204Z,45.28
2022-10-08T05:16:29.710Z,38.53
2022-10-08T05:18:58.351Z,41.67
2022-10-08T05:21:29.513Z,37.97
2022-10-08T05:24:01.578Z,43.75
2022-10-08T05:29:20.148Z,44.63
2022-10-08T05:31:48.000Z,48.33
2022-10-08T05:34:16.338Z,39.58
2022-10-08T05:36:44.894Z,32.45
2022-10-08T05:39:12.821Z,42.53
2022-10-08T05:41:41.298Z,42.90
2022-10-08T05:44:11.073Z,36.17
2022-10-08T05:46:39.664Z,35.50
2022-10-08T05:49:18.998Z,29.25
2022-10-08T05:51:48.532Z,32.55
2022-10-08T05:54:17.826Z,21.35
2022-10-08T05:56:45.626Z,22.98
2022-10-08T05:59:22.131Z,26.63
2022-10-08T06:01:50.882Z,21.42
2022-10-08T06:04:19.640Z,23.08
2022-10-08T06:06:47.891Z,22.77
2022-10-08T06:09:18.803Z,20.60
2022-10-08T06:11:49.202Z,22.75
2022-10-08T06:14:19.823Z,28.08
2022-10-08T06:16:48.389Z,24.77
2022-10-08T06:19:15.886Z,22.92
2022-10-08T06:21:44.331Z,25.80
2022-10-08T06:24:13.028Z,24.23
2022-10-08T06:26:42.644Z,21.30
2022-10-08T06:29:18.232Z,23.15
2022-10-08T06:31:47.824Z,23.65
2022-10-08T06:34:16.596Z,26.90
2022-10-08T06:36:44.886Z,23.55
2022-10-08T06:39:14.989Z,24.13
2022-10-08T06:41:43.275Z,22.20
2022-10-08T06:44:14.009Z,24.75
2022-10-08T06:46:42.959Z,27.05
2022-10-08T06:49:12.200Z,25.23
2022-10-08T06:51:39.885Z,26.95
2022-10-08T06:54:08.825Z,32.08
2022-10-08T06:56:38.344Z,33.58
2022-10-08T06:59:07.519Z,27.48
2022-10-08T07:01:36.789Z,29.70
2022-10-08T07:04:07.033Z,26.77
2022-10-08T07:06:35.555Z,23.52
2022-10-08T07:09:04.983Z,27.67
2022-10-08T07:11:35.454Z,29.88
2022-10-08T07:14:04.449Z,37.25
2022-10-08T07:16:33.824Z,28.92
2022-10-08T07:19:02.588Z,29.85
2022-10-08T07:21:31.276Z,34.53
2022-10-08T07:24:01.552Z,40.63
2022-10-08T07:26:34.304Z,33.63
2022-10-08T07:29:08.832Z,30.60
2022-10-08T07:31:38.127Z,26.05
2022-10-08T07:34:08.504Z,28.23
2022-10-08T07:36:36.833Z,25.05
2022-10-08T07:39:07.773Z,29.13
2022-10-08T07:41:36.117Z,25.75
2022-10-08T07:44:05.544Z,25.83
2022-10-08T07:46:36.170Z,26.00
2022-10-08T07:49:05.658Z,27.25
2022-10-08T07:51:35.344Z,24.70
2022-10-08T07:54:06.441Z,25.35
2022-10-08T07:56:35.675Z,26.13
2022-10-08T07:59:05.350Z,29.92
2022-10-08T08:01:34.683Z,26.25
2022-10-08T08:04:07.568Z,24.55
2022-10-08T08:06:41.849Z,35.17
2022-10-08T08:09:11.422Z,31.20
2022-10-08T08:11:40.343Z,24.02
2022-10-08T08:14:08.776Z,21.55
2022-10-08T08:16:37.446Z,25.08
2022-10-08T08:19:06.485Z,26.63
2022-10-08T08:21:38.591Z,29.20
2022-10-08T08:26:39.289Z,27.80
2022-10-08T08:29:12.350Z,23.27
2022-10-08T08:31:43.815Z,24.23
2022-10-08T08:34:15.260Z,24.15
2022-10-08T08:36:45.953Z,18.88
2022-10-08T08:39:25.205Z,22.85
2022-10-08T08:42:07.943Z,16.35
2022-10-08T08:44:45.611Z,28.13
2022-10-08T08:47:20.770Z,26.42
2022-10-08T08:50:21.888Z,18.13
2022-10-08T08:52:50.618Z,22.75
2022-10-08T08:55:21.710Z,35.17
2022-10-08T08:57:57.910Z,21.42
2022-10-08T09:00:33.339Z,20.85
2022-10-08T09:03:06.117Z,20.20
2022-10-08T09:05:37.053Z,18.77
2022-10-08T09:08:17.112Z,19.85
2022-10-08T09:11:05.477Z,17.58
2022-10-08T09:13:37.909Z,19.67
2022-10-08T09:16:05.838Z,19.57
2022-10-08T09:18:34.310Z,16.75
2022-10-08T09:21:02.500Z,16.80
2022-10-08T09:23:30.264Z,19.13
2022-10-08T09:26:09.485Z,22.55
2022-10-08T09:28:49.440Z,21.52
2022-10-08T09:31:23.634Z,16.17
2022-10-08T09:34:16.109Z,15.00
2022-10-08T09:36:53.341Z,16.65
2022-10-08T09:39:24.235Z,23.13
2022-10-08T09:42:15.178Z,17.60
2022-10-08T09:44:45.754Z,16.10
2022-10-08T09:47:24.920Z,21.48
2022-10-08T09:50:19.786Z,15.75
2022-10-08T09:52:50.596Z,18.73
2022-10-08T09:55:24.452Z,17.33
2022-10-08T09:57:57.135Z,17.77
2022-10-08T10:00:43.843Z,18.58
2022-10-08T10:03:18.774Z,16.50
2022-10-08T10:05:51.727Z,17.75
2022-10-08T10:08:52.522Z,15.65
2022-10-08T10:12:10.264Z,18.00
2022-10-08T10:14:50.247Z,18.15
2022-10-08T10:17:31.324Z,15.60
2022-10-08T10:20:06.561Z,21.75
2022-10-08T10:23:13.501Z,17.17
2022-10-08T10:26:06.180Z,16.92
2022-10-08T10:28:45.808Z,18.40
2022-10-08T10:31:29.048Z,23.17
2022-10-08T10:34:00.464Z,15.40
2022-10-08T10:36:34.931Z,16.80
2022-10-08T10:39:40.185Z,17.35
2022-10-08T10:42:23.033Z,16.23
2022-10-08T10:44:59.239Z,20.03
2022-10-08T10:47:32.318Z,20.55
2022-10-08T10:52:49.836Z,19.67
2022-10-08T10:55:25.385Z,16.08
2022-10-08T10:57:56.679Z,18.27
2022-10-08T11:00:28.857Z,13.52
2022-10-08T11:08:19.532Z,14.23
2022-10-08T11:11:00.934Z,16.58
2022-10-08T11:14:04.962Z,14.57
2022-10-08T11:17:08.334Z,49.60
2022-10-08T11:22:37.897Z,22.90
2022-10-08T11:25:30.977Z,16.35
2022-10-08T11:28:26.286Z,17.83
2022-10-08T11:31:26.311Z,19.95
2022-10-08T11:33:56.344Z,15.98
2022-10-08T11:36:37.162Z,25.13
2022-10-08T11:39:24.659Z,18.50
2022-10-08T11:42:12.985Z,19.55
2022-10-08T11:44:41.363Z,21.08
2022-10-08T11:47:46.699Z,21.75
2022-10-08T11:50:35.890Z,20.75
2022-10-08T11:53:23.161Z,18.77
2022-10-08T11:55:55.389Z,19.08
2022-10-08T11:58:29.384Z,29.83
2022-10-08T12:01:07.720Z,15.90
2022-10-08T12:03:39.627Z,16.38
2022-10-08T12:06:16.041Z,19.58
2022-10-08T12:09:07.197Z,21.77
2022-10-08T12:11:40.769Z,20.52
2022-10-08T12:14:12.025Z,24.73
2022-10-08T12:16:58.520Z,18.35
2022-10-08T12:19:38.981Z,24.65
2022-10-08T12:22:19.191Z,22.15
2022-10-08T12:24:50.595Z,16.65
2022-10-08T12:27:19.176Z,18.38
2022-10-08T12:29:55.020Z,17.52
2022-10-08T12:32:47.308Z,22.52
2022-10-08T12:35:40.690Z,27.67
2022-10-08T12:38:47.549Z,22.08
2022-10-08T12:41:31.825Z,18.60
2022-10-08T12:44:37.019Z,21.67
2022-10-08T12:47:23.018Z,17.40
2022-10-08T12:50:06.454Z,17.42
2022-10-08T12:52:35.605Z,23.85
2022-10-08T12:55:05.889Z,21.73
2022-10-08T12:57:37.134Z,19.15
2022-10-08T13:00:24.990Z,18.02
2022-10-08T13:03:20.359Z,22.73
2022-10-08T13:05:49.798Z,17.63
2022-10-08T13:08:31.605Z,25.42
2022-10-08T13:11:02.705Z,15.82
2022-10-08T13:13:49.226Z,20.40
2022-10-08T13:16:23.051Z,18.80
2022-10-08T13:18:54.145Z,17.67
2022-10-08T13:21:31.105Z,19.77
2022-10-08T13:24:00.460Z,15.68
2022-10-08T13:26:43.890Z,20.73
2022-10-08T13:32:22.215Z,19.05
2022-10-08T13:34:52.922Z,19.48
2022-10-08T13:37:27.205Z,17.42
2022-10-08T13:39:56.264Z,16.92
2022-10-08T13:42:26.890Z,26.73
2022-10-08T13:44:55.022Z,20.10
2022-10-08T13:47:22.868Z,31.58
2022-10-08T13:49:51.287Z,21.52
2022-10-08T13:52:21.698Z,22.77
2022-10-08T13:54:50.311Z,18.98
2022-10-08T13:57:18.588Z,20.25
2022-10-08T13:59:46.495Z,19.27
2022-10-08T14:02:15.188Z,16.63
2022-10-08T14:04:43.926Z,28.77
2022-10-08T14:07:25.482Z,21.33
2022-10-08T14:09:54.000Z,18.13
2022-10-08T14:12:26.522Z,25.92
2022-10-08T14:14:54.338Z,23.63
2022-10-08T14:17:22.909Z,20.90
2022-10-08T14:19:51.163Z,19.45
2022-10-08T14:22:19.067Z,23.45
2022-10-08T14:24:46.939Z,33.28
2022-10-08T14:27:14.636Z,22.88
2022-10-08T14:29:42.871Z,18.67
2022-10-08T14:32:11.823Z,20.50
2022-10-08T14:34:39.969Z,23.75
2022-10-08T14:37:08.153Z,23.48
2022-10-08T14:39:36.707Z,20.95
2022-10-08T14:42:04.868Z,19.45
2022-10-08T14:44:33.005Z,19.27
2022-10-08T14:47:01.397Z,27.55
2022-10-08T14:49:29.204Z,17.40
2022-10-08T14:51:56.862Z,20.42
2022-10-08T14:54:26.359Z,18.00
2022-10-08T14:56:54.228Z,21.10
2022-10-08T14:59:22.357Z,23.88
2022-10-08T15:01:50.511Z,15.65
2022-10-08T15:04:19.132Z,23.73
2022-10-08T15:06:46.802Z,27.55
2022-10-08T15:09:17.209Z,17.50
2022-10-08T15:11:45.129Z,18.10
2022-10-08T15:14:14.576Z,18.40
2022-10-08T15:16:43.331Z,21.48
2022-10-08T15:19:11.199Z,18.90
2022-10-08T15:21:39.403Z,23.45
2022-10-08T15:24:08.077Z,20.63
2022-10-08T15:26:36.002Z,21.33
2022-10-08T15:29:04.232Z,19.23
2022-10-08T15:31:32.804Z,19.45
2022-10-08T15:34:02.363Z,31.08
2022-10-08T15:36:32.877Z,18.52
2022-10-08T15:39:05.704Z,24.60
2022-10-08T15:41:38.270Z,55.42
2022-10-08T15:47:12.772Z,50.17
2022-10-08T15:49:46.318Z,33.78
2022-10-08T15:52:19.414Z,32.80
2022-10-08T15:54:47.739Z,29.92
2022-10-08T15:57:18.209Z,33.97
2022-10-08T15:59:45.863Z,39.10
2022-10-08T16:02:17.510Z,29.90
2022-10-08T16:04:47.342Z,58.75
2022-10-08T16:07:16.729Z,37.80
2022-10-08T16:09:44.508Z,32.88
2022-10-08T16:12:12.671Z,61.45
2022-10-08T16:14:40.668Z,72.82
2022-10-08T16:17:08.879Z,48.47
2022-10-08T16:19:36.611Z,57.70
2022-10-08T16:22:05.470Z,36.28
2022-10-08T16:24:33.700Z,33.30
2022-10-08T16:27:01.508Z,25.90
2022-10-08T16:29:29.931Z,28.38
2022-10-08T16:31:59.080Z,36.08
2022-10-08T16:34:28.813Z,29.80
2022-10-08T16:36:59.661Z,27.48
2022-10-08T16:39:28.423Z,32.45
2022-10-08T16:41:56.985Z,32.60
2022-10-08T16:44:24.989Z,28.13
2022-10-08T16:46:53.643Z,31.85
2022-10-08T16:49:26.702Z,34.72
2022-10-08T16:52:04.917Z,31.13
2022-10-08T16:54:33.244Z,30.20
2022-10-08T16:57:03.184Z,32.03
2022-10-08T16:59:32.540Z,29.05
2022-10-08T17:02:01.028Z,33.42
2022-10-08T17:04:30.283Z,30.65
2022-10-08T17:06:58.646Z,36.08
2022-10-08T17:09:27.056Z,36.55
2022-10-08T17:11:56.089Z,35.65
2022-10-08T17:14:24.101Z,35.78
2022-10-08T17:16:52.452Z,38.97
2022-10-08T17:19:20.413Z,40.13
2022-10-08T17:21:48.749Z,47.05
2022-10-08T17:24:16.817Z,46.72
2022-10-08T17:26:44.798Z,43.50
2022-10-08T17:29:13.164Z,42.55
2022-10-08T17:31:41.733Z,42.30
2022-10-08T17:34:11.963Z,48.35
2022-10-08T17:36:41.875Z,41.50
2022-10-08T17:39:13.470Z,45.60
2022-10-08T17:41:42.839Z,42.63
2022-10-08T17:44:12.396Z,43.17
2022-10-08T17:46:47.002Z,42.88
2022-10-08T17:49:17.498Z,40.03
2022-10-08T17:51:46.654Z,37.78
2022-10-08T17:54:16.880Z,44.40
2022-10-08T17:56:45.530Z,40.15
2022-10-08T17:59:18.364Z,45.80
2022-10-08T18:01:47.235Z,38.33
2022-10-08T18:04:18.046Z,41.90
2022-10-08T18:06:47.765Z,46.63
2022-10-08T18:09:21.309Z,42.83
2022-10-08T18:11:53.731Z,47.92
2022-10-08T18:14:22.753Z,50.22
2022-10-08T18:16:51.037Z,45.13
2022-10-08T18:19:18.857Z,40.80
2022-10-08T18:21:47.641Z,41.03
2022-10-08T18:24:17.344Z,41.35
2022-10-08T18:26:45.682Z,43.95
2022-10-08T18:29:15.277Z,50.20
2022-10-08T18:31:44.951Z,46.65
2022-10-08T18:34:15.988Z,40.15
2022-10-08T18:36:46.088Z,45.05
2022-10-08T18:39:17.718Z,44.60
2022-10-08T18:41:48.317Z,35.85
2022-10-08T18:44:22.813Z,36.08
2022-10-08T18:46:52.413Z,40.42
2022-10-08T18:49:30.748Z,40.15
2022-10-08T18:52:00.172Z,45.95
2022-10-08T18:54:28.212Z,41.30
2022-10-08T18:56:57.095Z,35.47
2022-10-08T18:59:25.599Z,36.60
2022-10-08T19:01:59.012Z,36.90
2022-10-08T19:04:28.016Z,35.22
2022-10-08T19:06:56.365Z,38.33
2022-10-08T19:09:24.211Z,33.70
2022-10-08T19:11:54.215Z,30.67
2022-10-08T19:14:23.376Z,40.38
2022-10-08T19:16:51.951Z,67.10
2022-10-08T19:19:23.783Z,57.15
2022-10-08T19:21:53.331Z,45.50
2022-10-08T19:24:25.259Z,40.42
2022-10-08T19:26:53.631Z,35.03
2022-10-08T19:29:25.942Z,33.47
2022-10-08T19:31:53.878Z,33.22
2022-10-08T19:34:25.148Z,33.70
2022-10-08T19:36:53.848Z,33.55
2022-10-08T19:39:24.667Z,32.78
2022-10-08T19:41:53.078Z,38.22
2022-10-08T19:44:21.719Z,39.63
2022-10-08T19:46:50.073Z,32.60
2022-10-08T19:49:18.817Z,30.52
2022-10-08T19:51:47.418Z,30.25
2022-10-08T19:54:15.957Z,31.67
2022-10-08T19:56:43.883Z,31.33
2022-10-08T19:59:13.115Z,36.53
2022-10-08T20:01:42.087Z,28.92
2022-10-08T20:04:11.140Z,31.45
2022-10-08T20:06:41.472Z,34.60
2022-10-08T20:09:12.258Z,29.27
2022-10-08T20:11:42.741Z,39.38
2022-10-08T20:14:11.302Z,31.25
2022-10-08T20:16:41.019Z,35.13
2022-10-08T20:19:18.215Z,33.70
2022-10-08T20:21:46.854Z,34.72
2022-10-08T20:24:15.710Z,32.40
2022-10-08T20:26:45.215Z,28.35
2022-10-08T20:29:26.300Z,32.30
2022-10-08T20:31:57.816Z,32.38
2022-10-08T20:34:28.985Z,34.17
2022-10-08T20:36:58.558Z,30.38
2022-10-08T20:39:26.559Z,31.35
2022-10-08T20:41:54.765Z,35.03
2022-10-08T20:44:22.554Z,36.50
2022-10-08T20:46:52.249Z,31.58
2022-10-08T20:49:20.818Z,38.22
2022-10-08T20:51:48.673Z,31.50
2022-10-08T20:54:17.446Z,31.67
2022-10-08T20:56:45.789Z,32.85
2022-10-08T20:59:16.519Z,31.77
2022-10-08T21:01:45.560Z,35.67
2022-10-08T21:04:13.719Z,33.78
2022-10-08T21:06:44.381Z,33.88
2022-10-08T21:09:14.232Z,30.25
2022-10-08T21:11:42.057Z,28.85
2022-10-08T21:14:10.386Z,32.70
2022-10-08T21:16:41.239Z,31.13
2022-10-08T21:19:17.553Z,33.10
2022-10-08T21:21:46.145Z,26.77
2022-10-08T21:24:14.111Z,30.33
2022-10-08T21:26:42.751Z,25.27
2022-10-08T21:29:13.065Z,28.77
2022-10-08T21:31:41.847Z,28.70
2022-10-08T21:34:12.356Z,30.40
2022-10-08T21:36:41.938Z,32.72
2022-10-08T21:39:16.316Z,26.65
2022-10-08T21:41:45.350Z,23.15
2022-10-08T21:44:14.218Z,29.95
2022-10-08T21:46:42.755Z,30.10
2022-10-08T21:49:17.237Z,27.52
2022-10-08T21:51:45.294Z,26.70
2022-10-08T21:54:14.019Z,30.27
2022-10-08T21:56:43.425Z,34.47
2022-10-08T21:59:14.209Z,21.08
2022-10-08T22:01:45.791Z,28.35
2022-10-08T22:04:17.330Z,25.35
2022-10-08T22:06:51.698Z,30.90
2022-10-08T22:09:20.740Z,21.52
2022-10-08T22:11:50.354Z,26.08
2022-10-08T22:14:19.502Z,23.13
2022-10-08T22:16:47.573Z,26.52
2022-10-08T22:19:17.022Z,24.55
2022-10-08T22:21:45.634Z,22.73
2022-10-08T22:24:14.179Z,25.58
2022-10-08T22:26:45.808Z,21.20
2022-10-08T22:29:14.509Z,18.10
2022-10-08T22:31:42.640Z,16.20
2022-10-08T22:34:11.671Z,14.80
2022-10-08T22:36:41.983Z,20.20
2022-10-08T22:39:10.993Z,14.15
2022-10-08T22:41:39.718Z,12.93
2022-10-08T22:44:07.410Z,13.63
2022-10-08T22:46:38.039Z,14.10
2022-10-08T22:49:10.171Z,14.02
2022-10-08T22:51:38.331Z,15.23
2022-10-08T22:54:06.875Z,16.60
2022-10-08T22:56:35.427Z,13.98
2022-10-08T22:59:04.089Z,14.70
2022-10-08T23:01:32.733Z,12.75
2022-10-08T23:04:00.643Z,14.02
2022-10-08T23:06:34.011Z,14.77
2022-10-08T23:09:05.762Z,14.85
2022-10-08T23:11:33.383Z,14.05
2022-10-08T23:14:02.862Z,14.80
2022-10-08T23:16:33.222Z,17.35
2022-10-08T23:19:04.501Z,15.10
2022-10-08T23:21:32.866Z,13.70
2022-10-08T23:24:00.979Z,17.13
2022-10-08T23:26:29.805Z,11.07
2022-10-08T23:29:00.361Z,19.27
2022-10-08T23:31:31.011Z,13.77
2022-10-08T23:34:00.579Z,18.23
2022-10-08T23:36:33.524Z,15.48
2022-10-08T23:39:02.848Z,17.05
2022-10-08T23:41:30.745Z,18.00
2022-10-08T23:43:59.331Z,17.65
2022-10-08T23:46:29.137Z,19.42
2022-10-08T23:48:58.538Z,13.45
2022-10-08T23:51:28.364Z,17.45
2022-10-08T23:53:56.614Z,19.45
2022-10-08T23:56:24.375Z,17.05
2022-10-08T23:58:52.812Z,15.32
